KRKW/RKW METAR and TAF weather

Enter ICAO airport designator
Station Type Date Time Source
KRKW METAR 2021/03/09 10:55 UTC NOAA

KRKW 091055Z AUTO 25003KT 10SM CLR 06/M08 A3047 RMK A01


Station Type Date Time Source
KRKW Decoded METAR 2021/03/09 10:55 UTC NOAA

Station name not available
Mar 09, 2021 - 05:55 AM EST / 2021.03.09 1055 UTC
Wind: from the WSW (250 degrees) at 3 MPH (3 KT):0
Visibility: 10 mile(s):0
Sky conditions: clear
Temperature: 42 F (6 C)
Dew Point: 17 F (-8 C)
Relative Humidity: 35%
Pressure (altimeter): 30.47 in. Hg (1031 hPa)
ob: KRKW 091055Z AUTO 25003KT 10SM CLR 06/M08 A3047 RMK A01
cycle: 11

Station Type Date Time Source
KRKW TAF 2009/08/31 19:50 UTC NOAA

METAR KRKW 311950Z AUTO VRB05KT 10SM CLR 25/13 A3010
RMK AO1 T02500133 $

Example: see airport list